createdAt,value
2017-09-22T00:00:59.403Z,71.50
2017-09-22T00:03:26.588Z,71.50
2017-09-22T00:05:54.532Z,71.50
2017-09-22T00:08:21.680Z,71.50
2017-09-22T00:10:48.863Z,71.50
2017-09-22T00:13:16.015Z,71.30
2017-09-22T00:15:43.203Z,71.50
2017-09-22T00:18:10.355Z,71.40
2017-09-22T00:20:37.507Z,71.60
2017-09-22T00:23:04.694Z,71.60
2017-09-22T00:25:32.646Z,72.50
2017-09-22T00:27:59.795Z,71.80
2017-09-22T00:30:26.978Z,71.80
2017-09-22T00:32:54.920Z,71.90
2017-09-22T00:35:22.077Z,71.90
2017-09-22T00:37:49.255Z,72.00
2017-09-22T00:40:17.204Z,72.20
2017-09-22T00:42:44.359Z,72.10
2017-09-22T00:45:12.308Z,72.90
2017-09-22T00:47:39.488Z,72.10
2017-09-22T00:50:07.436Z,72.10
2017-09-22T00:52:34.582Z,72.10
2017-09-22T00:55:01.760Z,72.10
2017-09-22T00:57:29.672Z,71.90
2017-09-22T00:59:56.859Z,71.90
2017-09-22T01:02:24.007Z,71.90
2017-09-22T01:04:51.151Z,72.00
2017-09-22T01:07:18.344Z,71.90
2017-09-22T01:09:46.260Z,71.70
2017-09-22T01:12:13.408Z,71.70
2017-09-22T01:14:40.588Z,71.80
2017-09-22T01:17:07.736Z,72.00
2017-09-22T01:19:34.937Z,72.00
2017-09-22T01:22:02.100Z,71.90
2017-09-22T01:24:29.251Z,71.90
2017-09-22T01:26:56.445Z,71.70
2017-09-22T01:29:23.584Z,71.70
2017-09-22T01:31:50.732Z,71.70
2017-09-22T01:34:17.911Z,71.70
2017-09-22T01:36:45.060Z,71.70
2017-09-22T01:39:13.009Z,71.90
2017-09-22T01:41:40.188Z,71.60
2017-09-22T01:44:08.109Z,71.70
2017-09-22T01:46:35.288Z,71.80
2017-09-22T01:49:02.436Z,71.70
2017-09-22T01:51:29.612Z,71.60
2017-09-22T01:53:57.521Z,71.60
2017-09-22T01:56:24.699Z,71.60
2017-09-22T01:58:52.624Z,71.60
2017-09-22T02:01:19.803Z,71.70
2017-09-22T02:03:46.987Z,71.70
2017-09-22T02:06:15.048Z,71.50
2017-09-22T02:08:42.232Z,71.50
2017-09-22T02:11:10.147Z,71.70
2017-09-22T02:13:37.323Z,71.70
2017-09-22T02:16:04.469Z,71.60
2017-09-22T02:18:31.659Z,71.70
2017-09-22T02:20:59.566Z,71.80
2017-09-22T02:23:26.712Z,71.70
2017-09-22T02:25:53.895Z,71.60
2017-09-22T02:28:21.973Z,71.50
2017-09-22T02:30:50.079Z,71.70
2017-09-22T02:33:18.030Z,71.60
2017-09-22T02:35:45.219Z,71.60
2017-09-22T02:38:13.184Z,71.60
2017-09-22T02:40:41.229Z,71.70
2017-09-22T02:43:09.172Z,72.20
2017-09-22T02:45:37.257Z,71.50
2017-09-22T02:48:04.441Z,71.60
2017-09-22T02:50:32.351Z,71.80
2017-09-22T02:53:00.466Z,71.80
2017-09-22T02:55:29.320Z,72.40
2017-09-22T02:57:56.603Z,71.70
2017-09-22T03:00:24.684Z,71.80
2017-09-22T03:02:53.557Z,72.40
2017-09-22T03:05:20.703Z,71.70
2017-09-22T03:07:48.620Z,71.70
2017-09-22T03:10:15.767Z,71.60
2017-09-22T03:12:43.772Z,71.80
2017-09-22T03:15:10.919Z,71.90
2017-09-22T03:17:38.835Z,71.70
2017-09-22T03:20:07.719Z,72.10
2017-09-22T03:22:35.846Z,71.70
2017-09-22T03:25:03.918Z,72.30
2017-09-22T03:27:31.060Z,71.70
2017-09-22T03:29:58.999Z,71.60
2017-09-22T03:32:27.732Z,71.90
2017-09-22T03:34:55.651Z,71.90
2017-09-22T03:37:23.559Z,72.30
2017-09-22T03:39:51.545Z,71.90
2017-09-22T03:42:18.735Z,71.80
2017-09-22T03:44:45.875Z,71.70
2017-09-22T03:47:13.939Z,71.80
2017-09-22T03:49:41.120Z,71.80
2017-09-22T03:52:09.859Z,71.80
2017-09-22T03:54:37.005Z,71.80
2017-09-22T03:57:04.150Z,71.80
2017-09-22T03:59:31.327Z,71.90
2017-09-22T04:01:58.470Z,71.80
2017-09-22T04:04:25.646Z,71.60
2017-09-22T04:06:52.819Z,71.90
2017-09-22T04:09:20.777Z,71.60
2017-09-22T04:11:47.919Z,71.60
2017-09-22T04:14:15.060Z,71.80
2017-09-22T04:16:42.239Z,71.90
2017-09-22T04:19:10.990Z,71.70
2017-09-22T04:21:38.175Z,71.70
2017-09-22T04:24:06.096Z,71.80
2017-09-22T04:26:33.242Z,71.90
2017-09-22T04:29:01.348Z,71.70
2017-09-22T04:31:28.497Z,71.90
2017-09-22T04:33:56.456Z,71.60
2017-09-22T04:36:24.540Z,71.90
2017-09-22T04:38:52.600Z,71.70
2017-09-22T04:41:19.779Z,71.90
2017-09-22T04:43:47.726Z,71.80
2017-09-22T04:46:15.802Z,71.70
2017-09-22T04:48:42.980Z,71.70
2017-09-22T04:51:11.676Z,71.90
2017-09-22T04:53:40.525Z,71.80
2017-09-22T04:56:08.109Z,71.80
2017-09-22T04:58:35.288Z,71.80
2017-09-22T05:01:04.016Z,71.90
2017-09-22T05:03:31.167Z,71.90
2017-09-22T05:05:59.251Z,71.80
2017-09-22T05:08:26.445Z,71.70
2017-09-22T05:10:55.139Z,71.40
2017-09-22T05:13:23.943Z,71.40
2017-09-22T05:15:51.903Z,71.40
2017-09-22T05:18:19.822Z,71.50
2017-09-22T05:20:47.771Z,71.60
2017-09-22T05:23:14.969Z,71.50
2017-09-22T05:25:42.111Z,71.60
2017-09-22T05:28:10.175Z,71.50
2017-09-22T05:30:37.364Z,71.30
2017-09-22T05:33:05.307Z,71.50
2017-09-22T05:35:33.347Z,71.50
2017-09-22T05:38:01.415Z,71.50
2017-09-22T05:40:28.557Z,71.50
2017-09-22T05:42:55.740Z,71.50
2017-09-22T05:45:23.879Z,71.50
2017-09-22T05:47:51.018Z,71.50
2017-09-22T05:50:18.155Z,71.50
2017-09-22T05:52:46.113Z,71.50
2017-09-22T05:55:14.024Z,71.80
2017-09-22T05:57:41.175Z,71.80
2017-09-22T06:00:08.359Z,72.80
2017-09-22T06:02:35.507Z,73.40
2017-09-22T06:05:02.648Z,74.00
2017-09-22T06:07:29.836Z,73.50
2017-09-22T06:09:58.584Z,74.70
2017-09-22T06:12:25.732Z,74.10
2017-09-22T06:14:53.698Z,73.20
2017-09-22T06:17:20.848Z,73.60
2017-09-22T06:19:47.997Z,73.20
2017-09-22T06:22:15.976Z,73.30
2017-09-22T06:24:44.082Z,73.10
2017-09-22T06:27:11.238Z,74.10
2017-09-22T06:29:40.091Z,72.90
2017-09-22T06:32:07.235Z,72.30
2017-09-22T06:34:35.191Z,71.70
2017-09-22T06:37:03.152Z,71.40
2017-09-22T06:39:31.259Z,71.30
2017-09-22T06:41:58.402Z,71.30
2017-09-22T06:44:26.320Z,71.40
2017-09-22T06:46:54.267Z,72.00
2017-09-22T06:49:22.336Z,72.50
2017-09-22T06:51:49.475Z,72.00
2017-09-22T06:54:16.658Z,72.10
2017-09-22T06:56:44.629Z,71.70
2017-09-22T06:59:12.984Z,72.50
2017-09-22T07:01:41.885Z,72.20
2017-09-22T07:04:09.032Z,72.20
2017-09-22T07:06:36.175Z,72.30
2017-09-22T07:09:03.372Z,71.90
2017-09-22T07:11:32.084Z,71.70
2017-09-22T07:13:59.260Z,71.60
2017-09-22T08:52:47.239Z,70.80
2017-09-22T08:55:15.327Z,70.10
2017-09-22T08:57:42.498Z,70.10
2017-09-22T09:00:10.200Z,70.20
2017-09-22T09:02:38.916Z,70.60
2017-09-22T09:05:06.094Z,70.50
2017-09-22T09:07:34.027Z,71.10
2017-09-22T09:10:01.980Z,71.30
2017-09-22T09:12:29.131Z,71.20
2017-09-22T09:14:56.275Z,69.20
2017-09-22T09:17:23.461Z,68.70
2017-09-22T09:19:50.642Z,68.90
2017-09-22T09:22:18.731Z,69.00
2017-09-22T09:24:45.912Z,68.70
2017-09-22T09:27:13.091Z,68.40
2017-09-22T09:29:40.239Z,68.10
2017-09-22T09:32:07.417Z,68.60
2017-09-22T09:34:35.480Z,67.60
2017-09-22T09:37:02.674Z,67.30
2017-09-22T09:39:29.824Z,67.40
2017-09-22T09:41:57.870Z,67.30
2017-09-22T09:44:25.848Z,67.40
2017-09-22T09:46:52.991Z,67.40
2017-09-22T09:49:21.135Z,67.50
2017-09-22T09:51:51.014Z,67.80
2017-09-22T09:54:18.969Z,68.10
2017-09-22T09:56:47.138Z,67.90
2017-09-22T09:59:14.330Z,68.00
2017-09-22T10:01:42.246Z,68.90
2017-09-22T10:04:09.391Z,68.20
2017-09-22T10:06:36.579Z,68.40
2017-09-22T10:09:03.720Z,68.60
2017-09-22T10:11:30.871Z,68.70
2017-09-22T10:13:58.066Z,68.60
2017-09-22T10:16:25.971Z,68.80
2017-09-22T10:18:53.124Z,68.80
2017-09-22T10:21:20.304Z,69.00
2017-09-22T10:23:48.220Z,69.10
2017-09-22T10:26:15.404Z,69.20
2017-09-22T10:28:42.555Z,69.10
2017-09-22T10:31:10.547Z,69.00
2017-09-22T10:33:37.697Z,69.00
2017-09-22T10:36:05.783Z,69.10
2017-09-22T10:38:32.959Z,69.00
2017-09-22T10:41:01.639Z,69.10
2017-09-22T10:43:30.488Z,68.90
2017-09-22T10:45:57.632Z,68.90
2017-09-22T10:48:25.623Z,69.10
2017-09-22T10:50:52.766Z,69.20
2017-09-22T10:53:20.711Z,70.30
2017-09-22T10:55:47.854Z,70.30
2017-09-22T10:58:15.040Z,70.70
2017-09-22T11:00:42.998Z,71.00
2017-09-22T11:03:10.147Z,71.50
2017-09-22T11:05:37.322Z,68.90
2017-09-22T11:08:04.495Z,69.70
2017-09-22T11:10:31.670Z,69.10
2017-09-22T11:12:58.816Z,69.20
2017-09-22T11:15:26.899Z,69.20
2017-09-22T11:17:54.045Z,69.20
2017-09-22T11:20:21.231Z,69.20
2017-09-22T11:22:49.196Z,69.20
2017-09-22T11:25:16.342Z,69.10
2017-09-22T11:27:43.516Z,69.10
2017-09-22T11:30:11.564Z,69.20
2017-09-22T11:32:39.647Z,69.20
2017-09-22T11:35:06.793Z,69.20
2017-09-22T11:37:33.941Z,69.40
2017-09-22T11:40:01.900Z,69.30
2017-09-22T11:42:29.947Z,69.50
2017-09-22T11:44:58.011Z,69.60
2017-09-22T11:47:26.738Z,69.80
2017-09-22T11:49:54.673Z,69.80
2017-09-22T11:52:22.611Z,69.70
2017-09-22T11:54:50.727Z,69.60
2017-09-22T11:57:18.775Z,69.80
2017-09-22T11:59:46.692Z,70.00
2017-09-22T12:02:14.651Z,69.80
2017-09-22T12:04:42.562Z,69.70
2017-09-22T12:07:09.735Z,69.80
2017-09-22T12:09:36.888Z,69.90
2017-09-22T12:12:04.854Z,69.90
2017-09-22T12:14:32.003Z,69.30
2017-09-22T12:16:59.926Z,69.90
2017-09-22T12:19:27.106Z,69.90
2017-09-22T12:21:55.922Z,69.80
2017-09-22T12:24:23.879Z,69.90
2017-09-22T12:26:51.019Z,69.90
2017-09-22T12:29:19.107Z,69.80
2017-09-22T12:31:47.188Z,69.80
2017-09-22T12:34:15.099Z,69.90
2017-09-22T12:36:43.025Z,69.80
2017-09-22T12:39:11.746Z,69.90
2017-09-22T12:41:39.651Z,69.90
2017-09-22T12:44:06.831Z,69.90
2017-09-22T12:46:35.675Z,70.50
2017-09-22T12:49:03.766Z,70.00
2017-09-22T12:51:30.951Z,70.10
2017-09-22T12:53:58.868Z,70.00
2017-09-22T12:56:26.912Z,70.00
2017-09-22T12:58:54.095Z,70.00
2017-09-22T13:01:21.248Z,70.00
2017-09-22T13:03:48.403Z,70.00
2017-09-22T13:06:16.491Z,70.00
2017-09-22T13:08:43.634Z,69.90
2017-09-22T13:11:11.624Z,70.00
2017-09-22T13:13:38.772Z,70.00
2017-09-22T13:16:06.708Z,70.00
2017-09-22T13:18:33.884Z,70.10
2017-09-22T13:21:01.027Z,70.10
2017-09-22T13:23:29.031Z,70.30
2017-09-22T13:25:57.719Z,70.20
2017-09-22T13:28:26.547Z,70.20
2017-09-22T13:30:54.611Z,70.20
2017-09-22T13:33:22.649Z,70.20
2017-09-22T13:35:49.842Z,70.30
2017-09-22T13:38:17.878Z,70.30
2017-09-22T13:40:46.566Z,70.60
2017-09-22T13:43:15.459Z,70.30
2017-09-22T13:45:44.280Z,70.30
2017-09-22T13:48:12.323Z,70.30
2017-09-22T13:50:40.271Z,70.30
2017-09-22T13:53:07.420Z,70.30
2017-09-22T13:55:36.155Z,70.40
2017-09-22T13:58:04.244Z,70.40
2017-09-22T14:00:31.939Z,70.30
2017-09-22T14:02:59.903Z,70.20
2017-09-22T14:05:28.620Z,70.20
2017-09-22T14:07:57.510Z,70.30
2017-09-22T14:10:26.374Z,70.70
2017-09-22T14:12:54.503Z,70.30
2017-09-22T14:15:22.575Z,70.90
2017-09-22T14:17:50.640Z,70.40
2017-09-22T14:20:19.511Z,70.40
2017-09-22T14:22:47.567Z,70.40
2017-09-22T14:25:15.539Z,70.50
2017-09-22T14:27:42.691Z,70.50
2017-09-22T14:30:10.743Z,70.40
2017-09-22T14:32:38.697Z,70.40
2017-09-22T14:35:05.844Z,70.50
2017-09-22T14:37:33.825Z,70.50
2017-09-22T14:40:01.010Z,70.50
2017-09-22T14:42:28.918Z,70.50
2017-09-22T14:44:56.054Z,70.50
2017-09-22T14:47:24.782Z,70.60
2017-09-22T14:49:51.931Z,70.60
2017-09-22T14:52:20.056Z,70.50
2017-09-22T14:54:47.972Z,70.50
2017-09-22T14:57:15.920Z,70.50
2017-09-22T14:59:43.099Z,70.50
2017-09-22T15:02:10.246Z,70.50
2017-09-22T15:04:37.439Z,70.60
2017-09-22T15:07:05.365Z,70.50
2017-09-22T15:09:32.513Z,70.60
2017-09-22T15:12:00.619Z,70.60
2017-09-22T15:14:28.695Z,70.60
2017-09-22T15:16:56.748Z,70.60
2017-09-22T15:19:23.927Z,70.60
2017-09-22T15:21:51.915Z,70.70
2017-09-22T15:24:20.651Z,70.80
2017-09-22T15:26:47.796Z,70.80
2017-09-22T15:29:15.887Z,70.80
2017-09-22T15:31:43.966Z,70.80
2017-09-22T15:34:11.892Z,70.90
2017-09-22T15:36:39.071Z,70.90
2017-09-22T15:39:07.019Z,70.90
2017-09-22T15:41:35.109Z,71.10
2017-09-22T15:44:03.192Z,71.30
2017-09-22T15:46:31.243Z,71.20
2017-09-22T15:48:59.186Z,71.30
2017-09-22T15:51:27.914Z,71.10
2017-09-22T15:53:55.095Z,71.20
2017-09-22T15:56:23.210Z,71.40
2017-09-22T15:58:51.253Z,71.60
2017-09-22T16:01:19.304Z,72.20
2017-09-22T16:03:47.408Z,71.50
2017-09-22T16:06:16.228Z,71.70
2017-09-22T16:08:44.262Z,71.70
2017-09-22T16:11:12.207Z,72.10
2017-09-22T16:13:40.299Z,71.90
2017-09-22T16:16:08.372Z,72.00
2017-09-22T16:18:36.429Z,72.10
2017-09-22T16:21:03.611Z,71.80
2017-09-22T16:23:32.314Z,72.20
2017-09-22T16:26:00.416Z,72.20
2017-09-22T16:28:27.556Z,72.30
2017-09-22T16:30:55.656Z,72.40
2017-09-22T16:33:23.699Z,72.30
2017-09-22T16:35:50.843Z,72.30
2017-09-22T16:38:18.924Z,72.30
2017-09-22T16:40:46.108Z,72.40
2017-09-22T16:43:14.198Z,72.50
2017-09-22T16:45:42.185Z,72.40
2017-09-22T16:48:10.867Z,72.50
2017-09-22T16:50:38.779Z,72.50
2017-09-22T16:53:06.739Z,72.50
2017-09-22T16:55:33.912Z,72.50
2017-09-22T16:58:02.027Z,72.60
2017-09-22T17:00:29.946Z,72.50
2017-09-22T17:02:57.131Z,72.40
2017-09-22T17:05:24.271Z,72.50
2017-09-22T17:07:52.352Z,72.50
2017-09-22T17:10:19.540Z,72.40
2017-09-22T17:12:47.447Z,72.50
2017-09-22T17:15:14.601Z,73.10
2017-09-22T17:17:41.794Z,72.30
2017-09-22T17:20:09.710Z,72.50
2017-09-22T17:22:36.895Z,72.20
2017-09-22T17:25:04.044Z,72.20
2017-09-22T17:27:31.204Z,72.30
2017-09-22T17:29:58.383Z,72.30
2017-09-22T17:32:26.338Z,72.00
2017-09-22T17:34:53.487Z,71.90
2017-09-22T17:37:20.636Z,72.10
2017-09-22T17:39:47.815Z,71.90
2017-09-22T17:42:15.759Z,71.90
2017-09-22T17:44:42.942Z,71.90
2017-09-22T17:47:10.080Z,73.20
2017-09-22T17:49:37.987Z,73.00
2017-09-22T17:52:05.972Z,72.90
2017-09-22T17:54:33.119Z,73.70
2017-09-22T17:57:00.263Z,72.80
2017-09-22T17:59:28.247Z,72.10
2017-09-22T18:02:03.292Z,72.10
2017-09-22T18:04:35.291Z,71.00
2017-09-22T18:07:02.568Z,70.90
2017-09-22T18:09:33.655Z,71.00
2017-09-22T18:12:00.963Z,70.60
2017-09-22T18:14:29.534Z,70.50
2017-09-22T18:16:58.250Z,70.40
2017-09-22T18:19:25.519Z,70.30
2017-09-22T18:21:52.707Z,70.40
2017-09-22T18:24:21.540Z,70.50
2017-09-22T18:26:48.691Z,70.30
2017-09-22T18:29:15.881Z,71.10
2017-09-22T18:31:43.059Z,70.90
2017-09-22T18:34:11.014Z,71.70
2017-09-22T18:36:39.064Z,71.60
2017-09-22T18:39:07.127Z,72.60
2017-09-22T18:41:35.222Z,72.80
2017-09-22T18:44:02.394Z,72.60
2017-09-22T18:46:30.340Z,72.50
2017-09-22T18:48:58.459Z,72.40
2017-09-22T18:51:25.608Z,72.90
2017-09-22T18:53:52.755Z,72.90
2017-09-22T18:56:19.940Z,72.20
2017-09-22T18:58:47.115Z,73.00
2017-09-22T19:01:14.311Z,73.10
2017-09-22T19:03:41.463Z,73.00
2017-09-22T19:06:09.523Z,72.70
2017-09-22T19:08:38.423Z,72.80
2017-09-22T19:11:06.464Z,72.80
2017-09-22T19:13:33.651Z,72.40
2017-09-22T19:16:00.808Z,73.10
2017-09-22T19:18:27.952Z,72.20
2017-09-22T19:20:55.131Z,72.80
2017-09-22T19:23:23.101Z,71.20
2017-09-22T19:25:51.223Z,71.30
2017-09-22T19:28:20.108Z,70.40
2017-09-22T19:30:47.297Z,70.10
2017-09-22T19:33:14.447Z,70.00
2017-09-22T19:35:41.620Z,69.80
2017-09-22T19:38:08.799Z,69.80
2017-09-22T19:40:35.948Z,69.80
2017-09-22T19:43:03.131Z,72.30
2017-09-22T19:45:31.044Z,71.70
2017-09-22T19:47:59.043Z,71.70
2017-09-22T19:50:26.203Z,71.40
2017-09-22T19:52:54.259Z,70.80
2017-09-22T19:55:21.444Z,70.30
2017-09-22T19:57:49.392Z,70.40
2017-09-22T20:00:16.567Z,70.70
2017-09-22T20:02:44.609Z,70.70
2017-09-22T20:05:12.587Z,70.60
2017-09-22T20:07:39.734Z,70.80
2017-09-22T20:10:07.675Z,70.90
2017-09-22T20:12:34.856Z,70.30
2017-09-22T20:15:02.007Z,70.90
2017-09-22T20:17:29.195Z,70.40
2017-09-22T20:19:57.104Z,70.30
2017-09-22T20:22:24.248Z,70.20
2017-09-22T20:24:52.209Z,70.30
2017-09-22T20:27:19.357Z,70.70
2017-09-22T20:29:46.504Z,70.80
2017-09-22T20:32:14.605Z,70.70
2017-09-22T20:34:41.747Z,70.50
2017-09-22T20:37:09.744Z,71.20
2017-09-22T20:39:36.883Z,71.10
2017-09-22T20:42:04.959Z,70.40
2017-09-22T20:44:33.053Z,71.10
2017-09-22T20:47:00.200Z,70.60
2017-09-22T20:49:27.399Z,70.90
2017-09-22T20:51:55.324Z,70.70
2017-09-22T20:54:23.284Z,70.70
2017-09-22T20:56:50.459Z,71.40
2017-09-22T20:59:18.391Z,71.60
2017-09-22T21:01:45.570Z,71.70
2017-09-22T21:04:14.300Z,71.90
2017-09-22T21:06:41.475Z,71.90
2017-09-22T21:09:09.556Z,71.30
2017-09-22T21:11:37.507Z,72.20
2017-09-22T21:14:04.652Z,71.90
2017-09-22T21:16:31.838Z,71.60
2017-09-22T21:18:59.891Z,71.00
2017-09-22T21:21:27.031Z,70.50
2017-09-22T21:23:54.215Z,70.10
2017-09-22T21:26:21.356Z,70.40
2017-09-22T21:28:48.495Z,70.30
2017-09-22T21:31:16.503Z,70.10
2017-09-22T21:33:45.190Z,70.80
2017-09-22T21:36:12.335Z,70.10
2017-09-22T21:38:39.514Z,69.80
2017-09-22T21:41:07.443Z,70.00
2017-09-22T21:43:35.539Z,70.10
2017-09-22T21:46:03.496Z,70.90
2017-09-22T21:48:31.570Z,70.90
2017-09-22T21:50:58.716Z,70.50
2017-09-22T21:53:25.904Z,70.40
2017-09-22T21:55:53.843Z,70.40
2017-09-22T21:58:21.885Z,70.30
2017-09-22T22:00:50.035Z,69.90
2017-09-22T22:03:22.967Z,70.00
2017-09-22T22:05:50.158Z,70.00
2017-09-22T22:08:18.225Z,69.80
2017-09-22T22:10:45.371Z,70.20
2017-09-22T22:13:13.331Z,71.00
2017-09-22T22:15:41.247Z,72.90
2017-09-22T22:18:09.168Z,72.60
2017-09-22T22:20:37.110Z,69.80
2017-09-22T22:23:04.289Z,69.80
2017-09-22T22:25:33.155Z,70.60
2017-09-22T22:28:01.230Z,70.60
2017-09-22T22:30:28.376Z,70.20
2017-09-22T22:32:56.345Z,70.30
2017-09-22T22:35:23.532Z,71.20
2017-09-22T22:37:52.344Z,70.60
2017-09-22T22:40:20.412Z,70.50
2017-09-22T22:42:48.469Z,71.10
2017-09-22T22:45:16.412Z,70.70
2017-09-22T22:47:43.557Z,70.60
2017-09-22T22:50:11.526Z,70.50
2017-09-22T22:52:39.515Z,69.90
2017-09-22T22:55:07.447Z,69.80
2017-09-22T22:57:34.635Z,69.70
2017-09-22T23:00:02.717Z,69.40
2017-09-22T23:02:30.636Z,69.00
2017-09-22T23:04:57.816Z,69.00
2017-09-22T23:07:24.958Z,69.40
2017-09-22T23:09:52.971Z,68.60
2017-09-22T23:12:20.882Z,68.50
2017-09-22T23:14:48.027Z,69.10
2017-09-22T23:17:15.203Z,68.40
2017-09-22T23:19:43.135Z,68.30
2017-09-22T23:22:10.312Z,68.30
2017-09-22T23:24:38.269Z,68.30
2017-09-22T23:27:05.443Z,68.20
2017-09-22T23:29:33.398Z,68.30
2017-09-22T23:32:00.551Z,68.20
2017-09-22T23:34:28.586Z,68.20
2017-09-22T23:36:55.772Z,68.20
2017-09-22T23:39:22.964Z,68.30
2017-09-22T23:41:50.115Z,68.30
2017-09-22T23:44:18.800Z,68.50
2017-09-22T23:46:47.652Z,69.00
2017-09-22T23:49:15.731Z,68.20
2017-09-22T23:51:42.910Z,68.20
2017-09-22T23:54:10.963Z,68.20
2017-09-22T23:56:38.958Z,68.20
2017-09-22T23:59:06.109Z,68.20
